Time;durP1;ratioP1;P1;durP2;ratioP2;P2;SDS_P1;SDS_P2;PMS_P1;PMS_P2;Temp;Humidity;BMP_temperature;BMP_pressure;BME280_temperature;BME280_humidity;BME280_pressure;Samples;Min_cycle;Max_cycle;Signal;HPM_P1;HPM_P2
2021/03/20 00:00:59;;;;;;;64.82;15.45;;;;;;;2.98;72.63;99980.02;1729480;83;21268;-79
2021/03/20 00:04:04;;;;;;;61.00;14.87;;;;;;;3.01;72.55;99984.28;1729490;83;21233;-79
2021/03/20 00:07:10;;;;;;;60.45;13.55;;;;;;;3.00;72.15;99985.28;1729429;83;21267;-79
2021/03/20 00:10:18;;;;;;;69.53;15.40;;;;;;;2.97;71.99;99985.57;1729523;83;21157;-79
2021/03/20 00:13:25;;;;;;;78.45;22.77;;;;;;;2.94;71.79;99985.83;1729450;83;21169;-79
2021/03/20 00:16:29;;;;;;;76.80;20.35;;;;;;;2.92;71.92;99981.07;1717045;83;21742;-79
2021/03/20 00:19:34;;;;;;;63.25;17.32;;;;;;;2.93;72.11;99984.13;1729512;83;21303;-79
2021/03/20 00:22:40;;;;;;;80.95;17.85;;;;;;;2.96;72.42;99977.93;1729539;83;21276;-79
2021/03/20 00:25:47;;;;;;;59.15;16.20;;;;;;;2.99;72.20;99979.52;1729466;83;21268;-79
2021/03/20 00:28:53;;;;;;;58.35;14.68;;;;;;;2.98;72.27;99975.97;1729388;83;21269;-79
2021/03/20 00:31:58;;;;;;;60.98;15.10;;;;;;;2.98;72.16;99980.52;1727629;83;21312;-79
2021/03/20 00:35:03;;;;;;;50.45;14.03;;;;;;;2.95;72.15;99969.97;1729446;83;21776;-79
2021/03/20 00:38:08;;;;;;;75.03;15.03;;;;;;;2.94;72.14;99977.23;1729433;83;21875;-79
2021/03/20 00:41:13;;;;;;;62.48;14.35;;;;;;;2.92;72.22;99977.02;1729470;83;21268;-79
2021/03/20 00:44:17;;;;;;;49.70;14.28;;;;;;;2.90;72.22;99974.93;1729442;83;21307;-79
2021/03/20 00:47:23;;;;;;;63.92;14.85;;;;;;;2.89;72.38;99969.17;1729472;83;21268;-79
2021/03/20 00:50:32;;;;;;;62.50;13.65;;;;;;;2.91;72.51;99971.23;1729509;83;21275;-79
2021/03/20 00:53:39;;;;;;;66.60;15.35;;;;;;;2.92;72.43;99971.12;1729272;83;21875;-79
2021/03/20 00:56:45;;;;;;;60.98;15.95;;;;;;;2.91;72.84;99968.53;1729494;83;21276;-79
2021/03/20 00:59:50;;;;;;;80.65;16.40;;;;;;;2.86;73.34;99960.83;1729393;83;21721;-79
2021/03/20 01:02:56;;;;;;;71.57;14.05;;;;;;;2.86;73.73;99969.44;1729461;83;21268;-79
2021/03/20 01:06:02;;;;;;;79.90;16.30;;;;;;;2.87;73.58;99964.38;1729476;83;21141;-78
2021/03/20 01:09:08;;;;;;;83.52;15.20;;;;;;;2.86;73.75;99968.08;1729420;83;21784;-79
2021/03/20 01:12:15;;;;;;;49.08;13.72;;;;;;;2.86;73.83;99968.08;1729458;83;21277;-79
2021/03/20 01:15:22;;;;;;;59.83;13.58;;;;;;;2.87;74.01;99965.73;1729400;83;21145;-79
2021/03/20 01:18:26;;;;;;;55.23;14.85;;;;;;;2.87;73.73;99961.69;1729468;83;21157;-79
2021/03/20 01:21:31;;;;;;;47.00;14.03;;;;;;;2.81;73.77;99961.73;1729442;83;21827;-79
2021/03/20 01:24:38;;;;;;;67.37;14.25;;;;;;;2.81;73.83;99963.94;1728981;83;21197;-79
2021/03/20 01:27:43;;;;;;;67.55;13.45;;;;;;;2.75;74.02;99965.84;1729344;83;21169;-79
2021/03/20 01:30:51;;;;;;;57.03;14.45;;;;;;;2.71;74.56;99963.54;1729447;83;21863;-79
2021/03/20 01:33:57;;;;;;;60.80;14.03;;;;;;;2.72;74.92;99964.74;1729487;83;21775;-79
2021/03/20 01:37:02;;;;;;;57.62;13.28;;;;;;;2.73;75.01;99961.08;1729418;83;21276;-79
2021/03/20 01:40:10;;;;;;;54.93;15.35;;;;;;;2.73;74.82;99965.13;1729417;83;21300;-79
2021/03/20 01:43:15;;;;;;;64.58;14.05;;;;;;;2.69;74.63;99962.83;1729563;83;21272;-79
2021/03/20 01:47:00;;;;;;;86.97;14.75;;;;;;;2.67;74.55;99969.70;1729370;83;21831;-79
2021/03/20 01:50:06;;;;;;;62.40;15.90;;;;;;;2.70;74.54;99972.64;1729558;83;21272;-79
2021/03/20 01:53:40;;;;;;;60.52;14.40;;;;;;;2.71;74.45;99963.04;1729508;83;21795;-79
2021/03/20 01:56:50;;;;;;;64.25;13.05;;;;;;;2.72;74.36;99970.14;1729563;83;21209;-79
2021/03/20 01:59:56;;;;;;;76.45;14.80;;;;;;;2.69;74.46;99966.38;1729491;83;21158;-79
2021/03/20 02:03:02;;;;;;;49.93;12.75;;;;;;;2.64;74.52;99969.13;1729477;83;21804;-79
2021/03/20 02:06:07;;;;;;;59.75;14.70;;;;;;;2.57;74.67;99966.09;1729525;83;21304;-79
2021/03/20 02:09:16;;;;;;;60.08;14.30;;;;;;;2.51;74.90;99962.09;1729562;83;21336;-79
2021/03/20 02:12:27;;;;;;;54.45;14.65;;;;;;;2.47;75.05;99968.73;1729422;83;21811;-79
2021/03/20 02:15:49;;;;;;;66.00;17.10;;;;;;;2.40;75.07;99963.98;1729321;83;21351;-79
2021/03/20 02:19:11;;;;;;;70.35;14.33;;;;;;;2.32;75.22;99962.47;1729575;83;21269;-79
2021/03/20 02:22:23;;;;;;;56.15;13.80;;;;;;;2.27;75.52;99967.77;1729451;83;21180;-79
2021/03/20 02:25:58;;;;;;;63.55;14.98;;;;;;;2.24;75.86;99965.31;1729166;83;21311;-79
2021/03/20 02:29:16;;;;;;;70.25;15.65;;;;;;;2.22;76.18;99964.61;1729538;83;21213;-79
2021/03/20 02:32:41;;;;;;;68.65;14.68;;;;;;;2.22;76.40;99967.30;1729655;82;21205;-79
2021/03/20 02:35:53;;;;;;;56.37;14.43;;;;;;;2.20;76.70;99968.41;1696581;84;21331;-78
2021/03/20 02:39:29;;;;;;;51.80;11.93;;;;;;;2.20;77.06;99969.76;1696663;84;21278;-79
2021/03/20 02:43:02;;;;;;;59.83;13.20;;;;;;;2.21;77.21;99965.60;1696546;84;21174;-79
2021/03/20 02:46:23;;;;;;;83.40;15.78;;;;;;;2.21;77.52;99971.00;1696654;84;21189;-79
2021/03/20 02:49:59;;;;;;;;;;;;;;;2.27;77.79;99967.77;1699155;84;21169;-79
2021/03/20 02:53:18;;;;;;;68.30;13.35;;;;;;;2.27;77.88;99968.27;1660743;86;20659;-79
2021/03/20 02:56:26;;;;;;;57.95;12.75;;;;;;;2.20;78.11;99966.56;1660216;86;21311;-79
2021/03/20 02:59:35;;;;;;;46.53;14.80;;;;;;;2.15;78.31;99970.64;1660694;86;21835;-79
2021/03/20 03:02:40;;;;;;;69.92;14.47;;;;;;;2.10;78.53;99972.39;1660711;86;21299;-79
2021/03/20 03:05:57;;;;;;;66.33;14.73;;;;;;;2.03;78.71;99967.17;1660655;86;21315;-79
2021/03/20 03:09:21;;;;;;;65.00;16.10;;;;;;;2.00;79.14;99966.92;1660711;86;21331;-79
2021/03/20 03:12:37;;;;;;;60.78;15.50;;;;;;;1.98;79.40;99966.70;1660477;86;21334;-79
2021/03/20 03:15:46;;;;;;;61.30;15.80;;;;;;;2.00;79.67;99973.66;1653292;86;21213;-79
2021/03/20 03:18:59;;;;;;;43.02;12.33;;;;;;;2.00;79.84;99968.77;1660641;86;21339;-79
2021/03/20 03:22:05;;;;;;;65.47;13.98;;;;;;;1.93;79.95;99970.25;1660693;86;21870;-79
2021/03/20 03:25:14;;;;;;;56.13;13.80;;;;;;;1.87;80.27;99968.08;1660650;86;21303;-79
2021/03/20 03:28:26;;;;;;;67.25;15.50;;;;;;;1.83;80.69;99974.72;1660742;86;21196;-79
2021/03/20 03:31:49;;;;;;;51.10;13.88;;;;;;;1.75;81.07;99974.03;1660696;86;21339;-79
2021/03/20 03:35:21;;;;;;;64.35;16.05;;;;;;;1.64;81.51;99970.00;1678902;85;21322;-78
2021/03/20 03:38:50;;;;;;;68.22;15.30;;;;;;;1.53;82.06;99972.25;1689902;85;21815;-78
2021/03/20 03:41:55;;;;;;;49.55;12.18;;;;;;;1.49;82.53;99975.68;1689813;85;21366;-79
2021/03/20 03:45:02;;;;;;;65.35;14.73;;;;;;;1.47;82.86;99972.77;1689903;85;21217;-79
2021/03/20 03:48:07;;;;;;;63.65;17.25;;;;;;;1.41;83.16;99973.25;1689906;85;21279;-79
2021/03/20 03:51:24;;;;;;;50.10;15.30;;;;;;;1.39;83.58;99973.88;1689910;85;21283;-79
2021/03/20 03:54:28;;;;;;;73.50;15.10;;;;;;;1.38;83.86;99973.52;1689914;85;21787;-79
2021/03/20 03:57:51;;;;;;;49.98;12.68;;;;;;;1.39;84.08;99973.88;1689237;85;21223;-79
2021/03/20 04:01:00;;;;;;;78.72;15.88;;;;;;;1.37;84.24;99977.20;1689853;85;21707;-79
2021/03/20 04:04:08;;;;;;;53.42;14.30;;;;;;;1.33;84.45;99977.94;1689887;85;21279;-78
2021/03/20 04:07:31;;;;;;;73.80;15.28;;;;;;;1.34;84.82;99981.48;1689896;85;21311;-79
2021/03/20 04:11:02;;;;;;;61.08;16.62;;;;;;;1.34;85.14;99986.37;1689916;85;21287;-79
2021/03/20 04:14:41;;;;;;;50.10;13.43;;;;;;;1.35;85.34;99987.23;1689905;85;21299;-78
2021/03/20 04:18:34;;;;;;;71.15;13.95;;;;;;;1.37;85.60;99989.33;1663349;85;21291;-79
2021/03/20 04:22:12;;;;;;;64.77;15.20;;;;;;;1.39;85.72;99992.25;1689906;85;21807;-79
2021/03/20 04:25:23;;;;;;;55.25;14.47;;;;;;;1.39;85.97;99994.09;1689907;85;21819;-79
2021/03/20 04:28:44;;;;;;;40.65;13.45;;;;;;;1.44;86.20;99998.61;1689860;85;21319;-78
2021/03/20 04:32:10;;;;;;;57.43;14.28;;;;;;;1.43;86.11;99995.06;1689872;85;21295;-78
2021/03/20 04:35:46;;;;;;;51.42;14.90;;;;;;;1.40;86.16;100002.04;1690552;85;21323;-78
2021/03/20 04:38:51;;;;;;;40.95;13.93;;;;;;;1.41;86.29;100001.08;1694122;85;21892;-78
2021/03/20 04:41:59;;;;;;;31.65;11.05;;;;;;;1.39;86.37;100000.83;1694018;85;21283;-78
2021/03/20 04:45:03;;;;;;;47.30;16.50;;;;;;;1.39;86.50;100003.03;1694065;85;21807;-78
2021/03/20 04:48:13;;;;;;;45.95;16.45;;;;;;;1.39;86.57;99998.13;1694071;85;21256;-78
2021/03/20 04:51:39;;;;;;;55.28;14.95;;;;;;;1.41;86.71;100001.08;1694074;85;21173;-78
2021/03/20 04:54:44;;;;;;;49.10;13.80;;;;;;;1.45;86.79;99996.27;1694210;85;21212;-79
2021/03/20 04:58:02;;;;;;;32.88;11.28;;;;;;;1.48;86.79;99996.89;1693722;85;21310;-78
2021/03/20 05:01:15;;;;;;;41.80;13.98;;;;;;;1.51;86.75;99998.00;1694064;85;21271;-79
2021/03/20 05:04:33;;;;;;;53.25;16.90;;;;;;;1.40;86.60;99993.10;1694136;85;21688;-79
2021/03/20 05:07:40;;;;;;;37.20;14.93;;;;;;;1.35;86.81;99997.52;1694093;85;21319;-79
2021/03/20 05:10:57;;;;;;;32.65;13.18;;;;;;;1.37;87.26;99991.53;1694084;85;21804;-79
2021/03/20 05:14:28;;;;;;;38.08;13.83;;;;;;;1.34;87.30;99995.81;1693976;84;21311;-78
2021/03/20 05:17:32;;;;;;;42.17;15.43;;;;;;;1.32;87.45;99995.55;1694347;85;21152;-79
2021/03/20 05:20:39;;;;;;;41.40;13.62;;;;;;;1.30;87.72;99992.14;1694226;85;21310;-78
2021/03/20 05:23:44;;;;;;;34.03;14.83;;;;;;;1.27;88.00;99991.89;1694192;84;21328;-79
2021/03/20 05:26:50;;;;;;;43.42;15.48;;;;;;;1.31;88.29;99991.16;1694167;85;21810;-79
2021/03/20 05:29:55;;;;;;;43.25;16.52;;;;;;;1.41;88.49;99993.46;1693925;85;21938;-78
2021/03/20 05:33:02;;;;;;;30.43;13.80;;;;;;;1.49;88.47;99991.86;1694195;84;21173;-79
2021/03/20 05:36:06;;;;;;;33.10;13.98;;;;;;;1.53;88.25;99997.86;1693379;85;21685;-79
2021/03/20 05:39:12;;;;;;;33.20;12.45;;;;;;;1.50;87.99;99999.45;1694159;85;21362;-78
2021/03/20 05:42:28;;;;;;;24.50;12.23;;;;;;;1.43;88.07;99993.72;1694175;84;21220;-79
2021/03/20 05:45:45;;;;;;;50.20;15.55;;;;;;;1.44;88.13;100008.05;1692784;84;21812;-79
2021/03/20 05:49:08;;;;;;;33.48;15.45;;;;;;;1.45;88.29;100011.09;1694143;85;21303;-79
2021/03/20 05:52:38;;;;;;;37.15;15.53;;;;;;;1.43;88.38;100003.64;1694184;84;21847;-79
2021/03/20 05:56:02;;;;;;;43.07;14.80;;;;;;;1.41;88.48;100008.28;1694330;85;21208;-79
2021/03/20 05:59:12;;;;;;;32.65;14.47;;;;;;;1.40;88.64;100011.97;1693679;85;21327;-78
2021/03/20 06:02:56;;;;;;;32.85;12.68;;;;;;;1.33;88.79;100015.66;1694123;85;21867;-78
2021/03/20 06:06:07;;;;;;;26.10;13.65;;;;;;;1.33;89.03;100015.66;1694184;84;21327;-79
2021/03/20 06:10:07;;;;;;;24.77;12.33;;;;;;;1.31;89.23;100015.41;1694273;85;21724;-79
2021/03/20 06:13:55;;;;;;;28.20;12.35;;;;;;;1.36;89.54;100019.93;1694164;85;21731;-78
2021/03/20 06:17:32;;;;;;;23.27;11.43;;;;;;;1.37;89.54;100019.83;1694160;85;21319;-79
2021/03/20 06:20:56;;;;;;;37.08;13.10;;;;;;;1.39;89.63;100025.94;1694150;85;21290;-78
2021/03/20 06:24:33;;;;;;;26.27;12.60;;;;;;;1.38;89.54;100026.07;1694049;84;21276;-78
2021/03/20 06:27:48;;;;;;;38.98;15.05;;;;;;;1.35;89.52;100029.01;1694153;85;21289;-79
2021/03/20 06:30:56;;;;;;;43.52;15.15;;;;;;;1.32;89.69;100027.89;1694163;84;21276;-79
2021/03/20 06:34:08;;;;;;;33.98;13.65;;;;;;;1.36;89.92;100035.61;1694175;85;21684;-78
2021/03/20 06:37:21;;;;;;;29.20;14.15;;;;;;;1.39;89.97;100037.21;1693286;85;21784;-78
2021/03/20 06:40:40;;;;;;;25.65;11.08;;;;;;;1.39;89.87;100034.02;1694178;85;21169;-79
2021/03/20 06:43:52;;;;;;;39.45;17.10;;;;;;;1.44;90.00;100037.70;1651909;84;21287;-78
2021/03/20 06:46:57;;;;;;;38.65;14.68;;;;;;;1.46;89.96;100037.09;1694158;85;21260;-78
2021/03/20 06:50:26;;;;;;;33.42;14.18;;;;;;;1.48;89.89;100038.66;1694062;85;21394;-78
2021/03/20 06:53:50;;;;;;;34.73;14.13;;;;;;;1.54;89.87;100038.65;1693903;85;21237;-79
2021/03/20 06:56:56;;;;;;;32.93;14.23;;;;;;;1.62;89.72;100045.62;1693435;84;21352;-78
2021/03/20 07:00:03;;;;;;;45.05;15.90;;;;;;;1.59;89.31;100039.12;1693567;85;21327;-79
2021/03/20 07:03:47;;;;;;;44.93;18.45;;;;;;;1.52;89.27;100041.48;1721418;83;21770;-78
2021/03/20 07:07:09;;;;;;;49.35;19.20;;;;;;;1.50;89.28;100042.58;1721401;83;21266;-79
2021/03/20 07:10:32;;;;;;;51.75;21.17;;;;;;;1.54;89.38;100042.20;1721453;83;21342;-78
2021/03/20 07:13:39;;;;;;;48.50;19.10;;;;;;;1.64;89.43;100042.80;1721522;83;21255;-79
2021/03/20 07:17:06;;;;;;;46.48;20.90;;;;;;;1.72;89.28;100047.08;1707356;83;21298;-79
2021/03/20 07:20:26;;;;;;;47.60;17.55;;;;;;;1.77;88.98;100043.51;1721493;83;21271;-79
2021/03/20 07:23:31;;;;;;;42.67;20.15;;;;;;;1.80;88.87;100047.31;1720554;82;21133;-79
2021/03/20 07:26:39;;;;;;;43.75;16.97;;;;;;;1.85;88.71;100045.58;1718296;82;21164;-79
2021/03/20 07:30:01;;;;;;;47.60;20.50;;;;;;;1.84;88.47;100045.23;1725306;82;21335;-78
2021/03/20 07:33:08;;;;;;;34.33;17.07;;;;;;;1.79;88.17;100046.95;1727893;82;21125;-79
2021/03/20 07:36:39;;;;;;;45.17;16.95;;;;;;;1.73;88.20;100048.29;1726494;82;21183;-78
2021/03/20 07:40:00;;;;;;;37.70;16.45;;;;;;;1.75;88.25;100047.69;1707470;83;21275;-78
2021/03/20 07:43:25;;;;;;;43.38;17.82;;;;;;;1.82;88.30;100047.17;1716837;83;21140;-78
2021/03/20 07:46:34;;;;;;;39.83;18.80;;;;;;;1.86;88.21;100043.24;1722922;83;21283;-79
2021/03/20 07:49:41;;;;;;;30.10;14.85;;;;;;;1.84;87.95;100049.27;1719429;83;21252;-79
2021/03/20 07:52:55;;;;;;;40.05;16.10;;;;;;;1.92;88.13;100047.63;1710708;83;21835;-79
2021/03/20 07:56:09;;;;;;;24.60;11.38;;;;;;;1.99;88.00;100045.29;1710478;83;21264;-79
2021/03/20 07:59:36;;;;;;;36.63;14.90;;;;;;;2.07;87.78;100049.56;1700051;83;21130;-79
2021/03/20 08:02:44;;;;;;;37.55;16.45;;;;;;;2.10;87.33;100052.48;1713387;83;21272;-78
2021/03/20 08:05:57;;;;;;;32.98;15.15;;;;;;;2.10;87.09;100051.13;1714078;82;21129;-79
2021/03/20 08:09:31;;;;;;;32.08;15.30;;;;;;;2.09;87.04;100050.28;1718796;83;21839;-79
2021/03/20 08:16:02;;;;;;;36.08;15.53;;;;;;;2.11;86.86;100050.14;1695592;83;21288;-79
2021/03/20 08:19:10;;;;;;;34.78;13.88;;;;;;;2.13;86.90;100057.13;1699468;83;21312;-79
2021/03/20 08:22:35;;;;;;;25.48;14.50;;;;;;;2.16;86.83;100050.11;1693592;84;21280;-78
2021/03/20 08:26:28;;;;;;;31.30;13.48;;;;;;;2.22;86.95;100055.51;1693988;84;21267;-79
2021/03/20 08:29:58;;;;;;;34.83;14.75;;;;;;;2.28;86.80;100051.78;1694437;84;21340;-79
2021/03/20 08:33:36;;;;;;;23.32;11.93;;;;;;;2.41;86.68;100048.91;1694609;84;21218;-79
2021/03/20 08:37:14;;;;;;;29.42;13.75;;;;;;;2.57;86.68;100049.80;1715750;83;21312;-79
2021/03/20 08:40:42;;;;;;;28.17;13.83;;;;;;;2.66;86.08;100048.16;1705069;83;21828;-79
2021/03/20 08:44:19;;;;;;;31.90;12.93;;;;;;;2.67;85.93;100050.71;1702780;83;21335;-79
2021/03/20 08:47:49;;;;;;;30.70;13.32;;;;;;;2.86;86.07;100054.03;1701436;84;21362;-78
2021/03/20 08:51:16;;;;;;;33.80;14.47;;;;;;;2.99;85.65;100055.17;1701526;84;21348;-79
2021/03/20 08:54:46;;;;;;;30.25;13.72;;;;;;;2.98;85.11;100055.67;1701101;84;21247;-78
2021/03/20 08:58:08;;;;;;;30.25;13.95;;;;;;;3.03;85.25;100053.92;1670628;86;21261;-79
2021/03/20 09:01:34;;;;;;;24.65;14.58;;;;;;;3.05;84.92;100055.98;1703504;84;21803;-78
2021/03/20 09:04:41;;;;;;;29.98;14.33;;;;;;;3.01;84.67;100056.77;1703683;84;21664;-78
2021/03/20 09:08:14;;;;;;;26.62;16.42;;;;;;;3.07;84.67;100053.52;1703727;84;21255;-78
2021/03/20 09:11:53;;;;;;;19.80;12.45;;;;;;;3.14;84.58;100056.53;1703679;84;21343;-78
2021/03/20 09:14:59;;;;;;;26.52;13.85;;;;;;;3.28;84.71;100053.46;1671762;86;21336;-78
2021/03/20 09:18:08;;;;;;;23.70;13.53;;;;;;;3.42;84.65;100054.09;1703478;84;21185;-78
2021/03/20 09:21:13;;;;;;;19.60;12.05;;;;;;;3.47;84.45;100054.03;1703684;84;21164;-78
2021/03/20 09:24:26;;;;;;;19.82;13.50;;;;;;;3.43;84.48;100062.55;1703621;84;21280;-78
2021/03/20 09:28:30;;;;;;;18.40;13.25;;;;;;;3.37;84.53;100050.94;1703745;84;21259;-78
2021/03/20 09:31:42;;;;;;;11.95;9.43;;;;;;;3.35;84.17;100058.34;1671749;86;21832;-78
2021/03/20 09:34:52;;;;;;;14.38;10.40;;;;;;;3.28;84.04;100062.92;1703740;84;21260;-78
2021/03/20 09:38:02;;;;;;;16.97;11.57;;;;;;;3.31;84.14;100072.62;1703678;84;21152;-78
2021/03/20 09:41:10;;;;;;;13.83;10.00;;;;;;;3.22;84.03;100067.53;1716312;83;21791;-78
2021/03/20 09:44:22;;;;;;;20.85;12.78;;;;;;;3.20;84.20;100069.52;1688887;85;21327;-78
2021/03/20 09:47:40;;;;;;;19.87;12.20;;;;;;;3.18;84.32;100064.73;1721509;83;21223;-78
2021/03/20 09:50:46;;;;;;;13.20;9.33;;;;;;;3.17;84.49;100072.48;1721633;83;21184;-78
2021/03/20 09:53:51;;;;;;;17.60;11.48;;;;;;;3.19;84.68;100068.28;1721582;83;21262;-78
2021/03/20 09:57:07;;;;;;;17.32;12.18;;;;;;;3.17;84.69;100063.02;1721483;83;21806;-78
2021/03/20 10:00:13;;;;;;;18.92;12.23;;;;;;;3.22;84.90;100067.53;1696231;83;21172;-78
2021/03/20 10:03:18;;;;;;;20.52;11.88;;;;;;;3.22;84.81;100064.83;1721353;83;21195;-78
2021/03/20 10:06:40;;;;;;;22.52;12.28;;;;;;;3.17;85.00;100059.47;1721584;83;21270;-78
2021/03/20 10:10:06;;;;;;;17.27;12.10;;;;;;;3.20;85.12;100060.06;1721502;83;21200;-78
2021/03/20 10:13:37;;;;;;;21.30;12.53;;;;;;;3.19;84.98;100061.03;1721519;83;21262;-78
2021/03/20 10:16:44;;;;;;;19.00;13.60;;;;;;;3.10;84.69;100059.13;1720978;82;21294;-78
2021/03/20 10:19:59;;;;;;;20.62;13.68;;;;;;;3.02;84.91;100058.97;1706327;83;21684;-78
2021/03/20 10:23:07;;;;;;;18.17;11.60;;;;;;;3.03;85.35;100060.18;1688839;85;21189;-78
2021/03/20 10:26:32;;;;;;;21.15;14.00;;;;;;;3.04;85.31;100051.08;1721516;83;21258;-78
2021/03/20 10:29:43;;;;;;;19.77;13.03;;;;;;;3.01;85.42;100053.19;1721522;83;21259;-78
2021/03/20 10:33:04;;;;;;;24.40;13.53;;;;;;;3.01;85.81;100055.42;1721147;83;21314;-78
2021/03/20 10:36:31;;;;;;;21.23;14.38;;;;;;;3.03;86.06;100053.42;1709906;83;21255;-78
2021/03/20 10:39:42;;;;;;;21.35;13.93;;;;;;;3.02;85.95;100048.16;1721569;83;21770;-78
2021/03/20 10:42:51;;;;;;;25.35;12.82;;;;;;;3.14;86.26;100046.22;1704248;83;21351;-78
2021/03/20 10:45:56;;;;;;;21.55;15.60;;;;;;;3.30;86.31;100045.23;1703661;84;21173;-78
2021/03/20 10:49:04;;;;;;;22.17;14.55;;;;;;;3.39;85.99;100046.23;1703505;84;21240;-78
2021/03/20 10:52:10;;;;;;;29.87;14.53;;;;;;;3.45;85.62;100048.42;1703783;84;21176;-78
2021/03/20 10:55:38;;;;;;;26.10;14.28;;;;;;;3.49;85.25;100047.16;1671811;86;21289;-78
2021/03/20 10:58:48;;;;;;;21.87;15.28;;;;;;;3.56;84.96;100042.89;1699408;84;21267;-78
2021/03/20 11:01:54;;;;;;;21.68;12.45;;;;;;;3.51;84.37;100042.45;1703685;84;21264;-78
2021/03/20 11:05:01;;;;;;;24.85;14.83;;;;;;;3.48;84.20;100042.25;1703704;84;21160;-78
2021/03/20 11:08:31;;;;;;;22.67;14.00;;;;;;;3.55;84.15;100046.59;1703695;84;21810;-78
2021/03/20 11:11:38;;;;;;;17.55;10.85;;;;;;;3.64;84.00;100047.13;1671749;86;21702;-78
2021/03/20 11:15:06;;;;;;;17.30;11.50;;;;;;;3.70;83.42;100043.85;1703690;84;21264;-78
2021/03/20 11:18:16;;;;;;;23.52;12.00;;;;;;;3.63;82.92;100044.06;1703545;84;21307;-78
2021/03/20 11:21:27;;;;;;;20.90;13.48;;;;;;;3.63;82.83;100040.00;1703676;84;21260;-78
2021/03/20 11:24:44;;;;;;;;;;;;;;;3.62;82.62;100043.68;1706231;84;21275;-78
2021/03/20 11:27:50;;;;;;;17.92;12.65;;;;;;;3.72;82.87;100039.17;1684176;85;20260;-78
2021/03/20 11:30:57;;;;;;;23.77;15.45;;;;;;;3.90;82.96;100043.89;1684263;85;21276;-78
2021/03/20 11:34:02;;;;;;;32.08;15.70;;;;;;;4.06;82.64;100044.21;1684202;85;21312;-78
2021/03/20 11:37:08;;;;;;;28.23;15.90;;;;;;;4.22;82.44;100041.78;1684220;85;21277;-79
2021/03/20 11:40:16;;;;;;;24.15;15.75;;;;;;;4.42;82.25;100043.13;1684247;85;21284;-78
2021/03/20 11:43:36;;;;;;;22.25;15.03;;;;;;;4.59;80.97;100045.13;1688491;83;21319;-78
2021/03/20 11:46:45;;;;;;;24.77;16.73;;;;;;;4.73;80.32;100043.81;1689422;85;21810;-78
2021/03/20 11:49:55;;;;;;;26.77;17.52;;;;;;;4.81;79.31;100043.95;1689239;85;21359;-78
2021/03/20 11:53:04;;;;;;;27.95;16.02;;;;;;;4.86;78.56;100043.86;1689514;85;21241;-78
2021/03/20 11:56:24;;;;;;;28.12;16.57;;;;;;;4.87;77.24;100044.21;1683437;85;21283;-78
2021/03/20 11:59:45;;;;;;;25.02;16.05;;;;;;;4.82;76.90;100046.51;1689390;85;21354;-78
2021/03/20 12:02:52;;;;;;;23.98;15.88;;;;;;;4.71;76.78;100046.69;1689421;85;21279;-78
2021/03/20 12:06:01;;;;;;;24.45;15.48;;;;;;;4.67;76.96;100043.91;1689430;85;21327;-78
2021/03/20 12:09:09;;;;;;;23.92;13.88;;;;;;;4.73;76.92;100043.31;1689386;85;21312;-78
2021/03/20 12:12:15;;;;;;;18.73;13.48;;;;;;;4.80;76.46;100051.23;1688088;85;21240;-78
2021/03/20 12:15:42;;;;;;;24.02;14.98;;;;;;;4.89;75.24;100050.83;1689361;85;21188;-78
2021/03/20 12:18:47;;;;;;;21.65;13.38;;;;;;;4.90;74.89;100054.42;1689389;85;21247;-78
2021/03/20 12:22:16;;;;;;;25.48;13.35;;;;;;;4.91;74.51;100058.84;1687811;85;21751;-78
2021/03/20 12:25:53;;;;;;;19.55;13.35;;;;;;;4.87;74.30;100055.05;1688371;85;21204;-78
2021/03/20 12:29:15;;;;;;;24.82;14.83;;;;;;;4.85;74.55;100052.16;1688320;85;21390;-78
2021/03/20 12:32:49;;;;;;;22.07;14.10;;;;;;;4.86;74.99;100049.79;1689382;85;21803;-78
2021/03/20 12:35:56;;;;;;;24.85;13.88;;;;;;;4.82;75.25;100052.43;1689204;85;21326;-78
2021/03/20 12:39:02;;;;;;;26.42;14.83;;;;;;;4.77;75.16;100059.64;1687981;85;21169;-78
2021/03/20 12:42:07;;;;;;;29.57;16.85;;;;;;;4.73;74.92;100054.16;1689346;85;21173;-78
2021/03/20 12:45:16;;;;;;;21.93;14.95;;;;;;;4.75;75.43;100058.95;1689521;85;21157;-78
2021/03/20 12:48:24;;;;;;;21.65;13.18;;;;;;;4.79;75.39;100057.63;1689384;85;21228;-78
2021/03/20 12:51:29;;;;;;;21.40;15.32;;;;;;;4.75;74.88;100057.59;1689122;85;21208;-79
2021/03/20 12:54:41;;;;;;;27.22;15.23;;;;;;;4.68;74.94;100061.86;1689348;85;21181;-78
2021/03/20 12:57:48;;;;;;;28.95;14.47;;;;;;;4.59;75.02;100062.23;1689350;85;21276;-79
2021/03/20 13:00:54;;;;;;;27.95;16.25;;;;;;;4.48;75.03;100061.53;1689389;85;21319;-78
2021/03/20 13:03:59;;;;;;;24.92;14.25;;;;;;;4.38;75.11;100061.54;1689375;85;21276;-78
2021/03/20 13:07:04;;;;;;;25.72;16.27;;;;;;;4.38;75.68;100063.39;1689382;85;21331;-79
2021/03/20 13:10:10;;;;;;;27.05;16.12;;;;;;;4.39;75.82;100070.52;1689375;85;21847;-79
2021/03/20 13:13:16;;;;;;;26.35;15.90;;;;;;;4.41;76.08;100069.86;1689306;85;21198;-78
2021/03/20 13:16:22;;;;;;;32.17;16.60;;;;;;;4.39;76.07;100077.28;1689381;85;21330;-79
2021/03/20 13:19:28;;;;;;;22.48;14.53;;;;;;;4.34;76.19;100070.44;1689409;85;21291;-79
2021/03/20 13:22:33;;;;;;;21.85;14.60;;;;;;;4.33;75.69;100070.09;1689350;85;21291;-79
2021/03/20 13:25:43;;;;;;;26.33;14.75;;;;;;;4.31;75.44;100068.51;1689351;85;21800;-79
2021/03/20 13:28:49;;;;;;;24.43;15.08;;;;;;;4.30;75.13;100064.95;1689445;85;21866;-79
2021/03/20 13:31:55;;;;;;;30.23;15.03;;;;;;;4.33;74.80;100063.83;1689352;85;21165;-79
2021/03/20 13:35:01;;;;;;;25.95;15.30;;;;;;;4.35;74.96;100068.08;1690686;84;21276;-79
2021/03/20 13:38:07;;;;;;;33.55;15.40;;;;;;;4.39;74.95;100063.24;1683910;84;21185;-79
2021/03/20 13:41:13;;;;;;;22.15;14.47;;;;;;;4.44;74.94;100065.52;1687867;84;22198;-79
2021/03/20 13:44:18;;;;;;;27.37;14.98;;;;;;;4.47;74.17;100056.63;1687297;84;21180;-79
2021/03/20 13:47:24;;;;;;;22.62;12.93;;;;;;;4.47;73.62;100073.34;1696332;83;21259;-79
2021/03/20 13:50:35;;;;;;;27.25;12.43;;;;;;;4.43;72.29;100072.80;1683988;85;21188;-79
2021/03/20 13:53:38;;;;;;;20.75;12.55;;;;;;;4.38;71.84;100068.81;1679349;85;22028;-79
2021/03/20 13:56:43;;;;;;;25.23;14.15;;;;;;;4.30;71.20;100063.59;1660743;86;21241;-79
2021/03/20 13:59:48;;;;;;;28.45;15.38;;;;;;;4.26;70.97;100069.44;1689985;85;21279;-79
2021/03/20 14:02:55;;;;;;;18.62;13.43;;;;;;;4.20;71.67;100069.51;1689970;85;21169;-79
2021/03/20 14:06:01;;;;;;;27.13;14.43;;;;;;;4.16;71.65;100068.08;1689952;85;21334;-79
2021/03/20 14:09:06;;;;;;;30.00;15.85;;;;;;;4.15;71.82;100070.94;1689960;85;21796;-79
2021/03/20 14:12:13;;;;;;;31.62;18.12;;;;;;;4.08;71.59;100069.27;1689963;85;21283;-79
2021/03/20 14:15:19;;;;;;;23.98;14.73;;;;;;;3.99;71.81;100075.52;1689869;85;21184;-79
2021/03/20 14:18:27;;;;;;;29.75;16.02;;;;;;;3.93;72.75;100071.53;1689959;85;21280;-79
2021/03/20 14:21:33;;;;;;;26.23;15.63;;;;;;;3.91;73.28;100071.33;1689845;85;21311;-79
2021/03/20 14:24:38;;;;;;;27.75;15.38;;;;;;;3.87;73.46;100073.95;1689889;85;21292;-79
2021/03/20 14:27:43;;;;;;;23.55;15.95;;;;;;;3.82;73.00;100071.66;1689928;85;21224;-79
2021/03/20 14:30:51;;;;;;;32.78;16.80;;;;;;;3.76;73.83;100076.25;1689931;85;21279;-79
2021/03/20 14:33:57;;;;;;;25.50;16.17;;;;;;;3.67;74.42;100071.20;1689867;85;21291;-79
2021/03/20 14:37:02;;;;;;;28.42;16.37;;;;;;;3.60;74.79;100079.48;1689824;85;21320;-79
2021/03/20 14:40:08;;;;;;;47.08;23.00;;;;;;;3.54;75.22;100084.95;1689893;85;21295;-79
2021/03/20 14:43:13;;;;;;;33.13;18.70;;;;;;;3.48;74.95;100084.16;1689905;85;21217;-79
2021/03/20 14:46:20;;;;;;;26.23;16.52;;;;;;;3.46;75.29;100087.98;1691896;84;21788;-79
2021/03/20 14:49:25;;;;;;;29.63;16.42;;;;;;;3.46;75.82;100083.92;1695267;84;21226;-79
2021/03/20 14:52:34;;;;;;;31.20;17.45;;;;;;;3.47;76.22;100085.63;1695100;84;21316;-79
2021/03/20 14:55:40;;;;;;;32.23;17.23;;;;;;;3.45;76.49;100081.72;1695148;84;21352;-79
2021/03/20 14:58:46;;;;;;;26.73;18.17;;;;;;;3.46;76.69;100087.98;1695174;84;21233;-79
2021/03/20 15:01:52;;;;;;;35.73;18.10;;;;;;;3.44;76.49;100088.63;1695150;84;21308;-79